Time;durP1;ratioP1;P1;durP2;ratioP2;P2;SDS_P1;SDS_P2;PMS_P1;PMS_P2;Temp;Humidity;BMP_temperature;BMP_pressure;BME280_temperature;BME280_humidity;BME280_pressure;Samples;Min_cycle;Max_cycle;Signal;HPM_P1;HPM_P2
2023/03/03 00:00:03;;;;;;;13.43;10.43;;;;;;;;;;514923;28;1250;-70
2023/03/03 00:00:19;;;;;;;13.30;10.75;;;;;;;;;;513945;28;1470;-70
2023/03/03 00:00:34;;;;;;;14.00;10.70;;;;;;;;;;514325;28;1329;-70
2023/03/03 00:00:50;;;;;;;14.07;10.50;;;;;;;;;;515213;28;1468;-70
2023/03/03 00:01:05;;;;;;;13.23;10.57;;;;;;;;;;517047;28;1117;-70
2023/03/03 00:01:24;;;;;;;14.07;10.57;;;;;;;;;;517987;28;1479;-70
2023/03/03 00:01:39;;;;;;;14.15;10.60;;;;;;;;;;517683;28;1445;-70
2023/03/03 00:01:54;;;;;;;12.53;10.23;;;;;;;;;;520099;28;1335;-70
2023/03/03 00:02:10;;;;;;;12.05;9.98;;;;;;;;;;520914;28;1139;-70
2023/03/03 00:02:25;;;;;;;12.40;10.10;;;;;;;;;;517413;28;1150;-70
2023/03/03 00:02:40;;;;;;;13.87;10.43;;;;;;;;;;517933;28;1297;-70
2023/03/03 00:03:00;;;;;;;13.50;10.57;;;;;;;;;;516613;28;1366;-70
2023/03/03 00:03:21;;;;;;;13.85;10.95;;;;;;;;;;517217;28;1505;-71
2023/03/03 00:03:36;;;;;;;13.52;10.63;;;;;;;;;;516557;28;1413;-71
2023/03/03 00:03:53;;;;;;;15.18;10.52;;;;;;;;;;516866;28;1208;-70
2023/03/03 00:04:08;;;;;;;15.00;10.50;;;;;;;;;;516763;28;1012;-70
2023/03/03 00:04:23;;;;;;;13.43;10.50;;;;;;;;;;516142;28;1128;-70
2023/03/03 00:04:39;;;;;;;14.18;10.82;;;;;;;;;;516926;28;1358;-70
2023/03/03 00:04:54;;;;;;;15.13;11.07;;;;;;;;;;518881;28;1221;-70
2023/03/03 00:05:14;;;;;;;13.90;10.82;;;;;;;;;;516587;28;1305;-70
2023/03/03 00:05:31;;;;;;;12.57;10.30;;;;;;;;;;516816;28;1320;-70
2023/03/03 00:05:47;;;;;;;12.00;10.30;;;;;;;;;;518434;28;1552;-70
2023/03/03 00:06:04;;;;;;;13.47;10.40;;;;;;;;;;518734;28;1188;-69
2023/03/03 00:06:20;;;;;;;13.75;10.48;;;;;;;;;;519775;28;1442;-70
2023/03/03 00:06:35;;;;;;;11.87;10.20;;;;;;;;;;518753;28;1232;-69
2023/03/03 00:06:51;;;;;;;13.98;10.48;;;;;;;;;;515640;28;1340;-70
2023/03/03 00:07:06;;;;;;;14.87;10.70;;;;;;;;;;518335;28;1250;-70
2023/03/03 00:07:22;;;;;;;13.57;10.47;;;;;;;;;;514392;28;1327;-70
2023/03/03 00:07:37;;;;;;;13.57;10.70;;;;;;;;;;516153;28;1458;-70
2023/03/03 00:07:52;;;;;;;12.60;10.75;;;;;;;;;;517570;28;1447;-70
2023/03/03 00:08:09;;;;;;;12.23;10.40;;;;;;;;;;519308;28;1169;-70
2023/03/03 00:08:25;;;;;;;12.43;10.02;;;;;;;;;;518014;28;1324;-70
2023/03/03 00:08:41;;;;;;;12.75;10.15;;;;;;;;;;516843;28;1269;-70
2023/03/03 00:08:57;;;;;;;13.43;10.80;;;;;;;;;;518115;28;1489;-70
2023/03/03 00:09:12;;;;;;;12.43;10.63;;;;;;;;;;515799;28;1417;-70
2023/03/03 00:09:27;;;;;;;12.10;10.30;;;;;;;;;;516705;28;1257;-71
2023/03/03 00:09:42;;;;;;;12.43;10.20;;;;;;;;;;517110;28;1487;-70
2023/03/03 00:09:58;;;;;;;12.97;10.60;;;;;;;;;;513244;28;1391;-70
2023/03/03 00:10:13;;;;;;;13.32;10.98;;;;;;;;;;513524;28;1130;-70
2023/03/03 00:10:29;;;;;;;12.10;10.50;;;;;;;;;;515817;28;1238;-70
2023/03/03 00:10:44;;;;;;;11.88;10.40;;;;;;;;;;516510;28;1337;-70
2023/03/03 00:11:01;;;;;;;13.00;10.67;;;;;;;;;;519612;28;1440;-70
2023/03/03 00:11:17;;;;;;;14.23;11.07;;;;;;;;;;519846;28;1571;-70
2023/03/03 00:11:33;;;;;;;14.30;11.00;;;;;;;;;;520146;28;1248;-70
2023/03/03 00:11:54;;;;;;;13.80;10.80;;;;;;;;;;521133;28;1236;-71
2023/03/03 00:12:44;;;;;;;13.23;10.95;;;;;;;;;;520584;28;1882;-70
2023/03/03 00:12:59;;;;;;;12.65;10.55;;;;;;;;;;520478;28;1411;-70
2023/03/03 00:13:21;;;;;;;12.68;10.85;;;;;;;;;;521419;28;1420;-70
2023/03/03 00:13:45;;;;;;;13.48;11.23;;;;;;;;;;520423;28;1291;-70
2023/03/03 00:14:01;;;;;;;14.27;11.40;;;;;;;;;;519561;28;1477;-70
2023/03/03 00:14:22;;;;;;;13.70;11.30;;;;;;;;;;516663;28;1466;-70
2023/03/03 00:14:37;;;;;;;14.15;10.65;;;;;;;;;;516400;28;1338;-70
2023/03/03 00:14:53;;;;;;;13.77;10.60;;;;;;;;;;516938;28;1378;-70
2023/03/03 00:15:20;;;;;;;13.18;11.02;;;;;;;;;;514317;28;1313;-70
2023/03/03 00:15:35;;;;;;;14.55;11.10;;;;;;;;;;516759;28;1505;-69
2023/03/03 00:15:51;;;;;;;14.30;11.07;;;;;;;;;;521448;28;1445;-70
2023/03/03 00:16:23;;;;;;;14.23;11.07;;;;;;;;;;519043;28;1360;-71
2023/03/03 00:16:39;;;;;;;12.93;11.07;;;;;;;;;;521001;28;1311;-70
2023/03/03 00:16:55;;;;;;;13.43;10.88;;;;;;;;;;521155;28;1485;-70
2023/03/03 00:17:22;;;;;;;13.60;10.93;;;;;;;;;;521809;28;1264;-69
2023/03/03 00:17:37;;;;;;;14.48;11.02;;;;;;;;;;516694;28;2219;-70
2023/03/03 00:17:53;;;;;;;14.00;11.05;;;;;;;;;;517160;28;1356;-70
2023/03/03 00:18:17;;;;;;;13.20;10.77;;;;;;;;;;514415;28;1414;-70
2023/03/03 00:18:39;;;;;;;13.48;10.82;;;;;;;;;;516771;28;1520;-70
2023/03/03 00:18:55;;;;;;;13.68;10.68;;;;;;;;;;520219;28;1262;-69
2023/03/03 00:19:18;;;;;;;13.48;10.65;;;;;;;;;;517246;28;1236;-70
2023/03/03 00:19:38;;;;;;;13.23;10.57;;;;;;;;;;519118;28;1437;-70
2023/03/03 00:19:53;;;;;;;13.60;10.43;;;;;;;;;;517658;28;1318;-69
2023/03/03 00:20:38;;;;;;;12.82;10.45;;;;;;;;;;520053;28;1528;-70
2023/03/03 00:20:56;;;;;;;13.77;10.75;;;;;;;;;;509832;28;1629;-70
2023/03/03 00:21:24;;;;;;;14.95;10.70;;;;;;;;;;513764;28;1833;-70
2023/03/03 00:21:44;;;;;;;13.75;10.30;;;;;;;;;;515707;28;1393;-70
2023/03/03 00:21:59;;;;;;;13.88;10.85;;;;;;;;;;516148;28;1461;-70
2023/03/03 00:22:27;;;;;;;13.23;11.20;;;;;;;;;;517923;28;1296;-69
2023/03/03 00:22:42;;;;;;;14.02;10.98;;;;;;;;;;514955;28;1372;-70
2023/03/03 00:23:19;;;;;;;13.65;10.90;;;;;;;;;;518468;28;1443;-70
2023/03/03 00:23:37;;;;;;;13.35;10.48;;;;;;;;;;518942;28;1458;-70
2023/03/03 00:23:53;;;;;;;12.88;10.57;;;;;;;;;;522281;28;1274;-70
2023/03/03 00:24:20;;;;;;;13.35;10.95;;;;;;;;;;522077;28;1469;-70
2023/03/03 00:24:38;;;;;;;13.93;11.07;;;;;;;;;;519259;28;1246;-71
2023/03/03 00:24:53;;;;;;;15.23;11.10;;;;;;;;;;520000;28;1394;-70
2023/03/03 00:25:28;;;;;;;15.50;11.05;;;;;;;;;;518043;28;1291;-70
2023/03/03 00:25:45;;;;;;;12.48;10.52;;;;;;;;;;518854;28;1348;-70
2023/03/03 00:26:00;;;;;;;13.52;10.60;;;;;;;;;;521009;28;1539;-70
2023/03/03 00:26:33;;;;;;;13.63;11.00;;;;;;;;;;521003;28;1197;-70
2023/03/03 00:26:50;;;;;;;14.38;11.25;;;;;;;;;;521448;28;1251;-70
2023/03/03 00:27:31;;;;;;;13.73;10.73;;;;;;;;;;521002;28;1505;-70
2023/03/03 00:27:46;;;;;;;13.43;11.02;;;;;;;;;;518667;28;1477;-70
2023/03/03 00:28:22;;;;;;;14.20;10.88;;;;;;;;;;521303;28;1188;-70
2023/03/03 00:28:46;;;;;;;12.68;10.77;;;;;;;;;;519049;28;1525;-71
2023/03/03 00:29:18;;;;;;;12.57;10.75;;;;;;;;;;519340;28;1153;-70
2023/03/03 00:29:40;;;;;;;13.55;10.80;;;;;;;;;;517431;28;1554;-68
2023/03/03 00:29:57;;;;;;;13.35;10.70;;;;;;;;;;517899;28;1636;-70
2023/03/03 00:30:26;;;;;;;14.02;10.75;;;;;;;;;;518370;28;1558;-69
2023/03/03 00:30:41;;;;;;;13.43;10.70;;;;;;;;;;518585;28;1031;-69
2023/03/03 00:30:59;;;;;;;13.13;10.67;;;;;;;;;;517569;28;1181;-69
2023/03/03 00:31:29;;;;;;;12.65;10.98;;;;;;;;;;517197;28;1154;-69
2023/03/03 00:31:44;;;;;;;12.95;10.73;;;;;;;;;;518582;28;1260;-69
2023/03/03 00:32:18;;;;;;;13.90;10.80;;;;;;;;;;519805;28;1913;-69
2023/03/03 00:32:41;;;;;;;13.90;10.80;;;;;;;;;;518558;28;1488;-69
2023/03/03 00:32:56;;;;;;;13.02;10.63;;;;;;;;;;516865;28;1326;-69
2023/03/03 00:33:26;;;;;;;13.70;10.97;;;;;;;;;;518563;28;1256;-69
2023/03/03 00:33:53;;;;;;;13.48;11.02;;;;;;;;;;516471;28;1295;-69
2023/03/03 00:34:18;;;;;;;13.60;11.32;;;;;;;;;;517883;28;1275;-69
2023/03/03 00:34:35;;;;;;;15.30;11.38;;;;;;;;;;517017;28;1491;-69
2023/03/03 00:34:53;;;;;;;13.93;10.90;;;;;;;;;;518499;28;1549;-70
2023/03/03 00:35:34;;;;;;;12.95;11.02;;;;;;;;;;518668;28;1247;-69
2023/03/03 00:35:49;;;;;;;13.18;10.80;;;;;;;;;;520361;28;1455;-69
2023/03/03 00:36:27;;;;;;;14.02;10.85;;;;;;;;;;518413;28;1348;-69
2023/03/03 00:36:44;;;;;;;14.63;11.27;;;;;;;;;;517640;28;1246;-69
2023/03/03 00:36:59;;;;;;;14.18;11.20;;;;;;;;;;521391;28;1398;-69
2023/03/03 00:37:23;;;;;;;13.98;10.93;;;;;;;;;;518260;28;1440;-69
2023/03/03 00:37:40;;;;;;;14.43;11.13;;;;;;;;;;517597;28;1371;-69
2023/03/03 00:37:58;;;;;;;14.57;11.20;;;;;;;;;;518341;28;1382;-70
2023/03/03 00:38:17;;;;;;;13.60;11.30;;;;;;;;;;518584;28;1273;-70
2023/03/03 00:38:34;;;;;;;13.88;11.10;;;;;;;;;;516681;28;1494;-70
2023/03/03 00:38:50;;;;;;;13.55;11.15;;;;;;;;;;518302;28;1546;-69
2023/03/03 00:39:23;;;;;;;13.77;11.13;;;;;;;;;;518793;28;1345;-69
2023/03/03 00:39:39;;;;;;;12.52;10.55;;;;;;;;;;519284;28;1244;-69
2023/03/03 00:40:18;;;;;;;12.93;10.80;;;;;;;;;;519142;28;1185;-70
2023/03/03 00:40:38;;;;;;;14.00;11.02;;;;;;;;;;519151;28;1363;-70
2023/03/03 00:40:53;;;;;;;12.18;10.57;;;;;;;;;;515626;28;1605;-70
2023/03/03 00:41:36;;;;;;;12.43;10.50;;;;;;;;;;517380;28;1436;-70
2023/03/03 00:41:52;;;;;;;13.20;10.50;;;;;;;;;;515990;28;1569;-70
2023/03/03 00:42:16;;;;;;;12.93;11.13;;;;;;;;;;517069;28;1437;-70
2023/03/03 00:42:35;;;;;;;14.02;11.27;;;;;;;;;;518978;28;1633;-70
2023/03/03 00:42:56;;;;;;;12.70;10.60;;;;;;;;;;518608;28;1537;-70
2023/03/03 00:43:23;;;;;;;13.15;10.25;;;;;;;;;;516251;28;1297;-69
2023/03/03 00:43:38;;;;;;;11.77;10.35;;;;;;;;;;515874;28;1343;-69
2023/03/03 00:43:54;;;;;;;13.45;10.90;;;;;;;;;;514200;28;1232;-69
2023/03/03 00:44:32;;;;;;;13.87;11.00;;;;;;;;;;515566;28;1279;-69
2023/03/03 00:44:58;;;;;;;12.57;10.60;;;;;;;;;;508155;28;1403;-69
2023/03/03 00:45:30;;;;;;;13.38;11.18;;;;;;;;;;517077;28;1323;-68
2023/03/03 00:45:48;;;;;;;13.13;10.90;;;;;;;;;;516188;28;1346;-68
2023/03/03 00:46:04;;;;;;;13.70;10.90;;;;;;;;;;517933;28;1557;-69
2023/03/03 00:46:22;;;;;;;13.97;10.70;;;;;;;;;;515338;28;1359;-69
2023/03/03 00:46:38;;;;;;;14.10;11.20;;;;;;;;;;516099;28;1329;-69
2023/03/03 00:46:53;;;;;;;13.83;11.30;;;;;;;;;;517530;28;1466;-69
2023/03/03 00:47:25;;;;;;;12.25;10.60;;;;;;;;;;515881;28;1392;-69
2023/03/03 00:47:42;;;;;;;13.85;11.05;;;;;;;;;;517587;28;1275;-69
2023/03/03 00:48:06;;;;;;;13.60;10.77;;;;;;;;;;516368;28;1317;-69
2023/03/03 00:48:30;;;;;;;14.55;11.30;;;;;;;;;;517128;28;1438;-68
2023/03/03 00:48:47;;;;;;;14.80;11.70;;;;;;;;;;515501;28;1344;-68
2023/03/03 00:49:20;;;;;;;13.05;11.07;;;;;;;;;;518278;28;1372;-69
2023/03/03 00:49:35;;;;;;;12.90;10.73;;;;;;;;;;516253;28;1436;-68
2023/03/03 00:49:52;;;;;;;13.00;10.90;;;;;;;;;;517484;28;1160;-68
2023/03/03 00:50:10;;;;;;;13.10;10.80;;;;;;;;;;517601;28;1055;-69
2023/03/03 00:50:33;;;;;;;13.45;10.82;;;;;;;;;;518689;28;1366;-68
2023/03/03 00:50:50;;;;;;;12.30;10.52;;;;;;;;;;516929;28;1385;-69
2023/03/03 00:51:26;;;;;;;12.70;10.85;;;;;;;;;;517520;28;1436;-68
2023/03/03 00:51:42;;;;;;;13.32;10.57;;;;;;;;;;517801;28;1322;-70
2023/03/03 00:51:58;;;;;;;12.85;10.70;;;;;;;;;;516469;28;1924;-70
2023/03/03 00:52:16;;;;;;;12.70;10.40;;;;;;;;;;517139;28;1331;-70
2023/03/03 00:52:43;;;;;;;13.90;10.88;;;;;;;;;;514813;28;1448;-70
2023/03/03 00:53:02;;;;;;;12.90;10.75;;;;;;;;;;516489;28;1601;-70
2023/03/03 00:53:19;;;;;;;13.05;10.80;;;;;;;;;;519233;28;1466;-69
2023/03/03 00:53:35;;;;;;;13.52;10.80;;;;;;;;;;517598;28;1361;-70
2023/03/03 00:53:50;;;;;;;13.50;10.70;;;;;;;;;;517945;28;1344;-70
2023/03/03 00:54:05;;;;;;;12.90;10.88;;;;;;;;;;519303;28;1215;-70
2023/03/03 00:54:21;;;;;;;12.87;10.80;;;;;;;;;;515353;28;1444;-70
2023/03/03 00:54:36;;;;;;;12.60;10.57;;;;;;;;;;517900;28;1394;-69
2023/03/03 00:54:51;;;;;;;12.98;10.50;;;;;;;;;;514425;28;1171;-70
2023/03/03 00:55:07;;;;;;;13.43;10.70;;;;;;;;;;516797;28;1189;-70
2023/03/03 00:55:23;;;;;;;13.35;10.80;;;;;;;;;;514827;28;1329;-70
2023/03/03 00:55:39;;;;;;;14.03;10.90;;;;;;;;;;514107;28;1272;-69
2023/03/03 00:55:55;;;;;;;13.77;10.70;;;;;;;;;;517103;28;1642;-69
2023/03/03 00:56:11;;;;;;;13.18;10.55;;;;;;;;;;519625;28;1244;-69
2023/03/03 00:56:26;;;;;;;13.87;10.67;;;;;;;;;;518698;28;1370;-70
2023/03/03 00:56:42;;;;;;;13.85;10.45;;;;;;;;;;517417;28;1405;-70
2023/03/03 00:56:57;;;;;;;12.75;10.55;;;;;;;;;;517101;28;1206;-70
2023/03/03 00:57:12;;;;;;;12.00;10.60;;;;;;;;;;518830;28;1200;-70
2023/03/03 00:57:28;;;;;;;11.67;10.30;;;;;;;;;;517870;28;1221;-70
2023/03/03 00:57:43;;;;;;;12.05;10.48;;;;;;;;;;517474;28;1304;-70
2023/03/03 00:57:58;;;;;;;12.50;10.70;;;;;;;;;;520673;28;1287;-70
2023/03/03 00:58:14;;;;;;;12.70;10.50;;;;;;;;;;521250;28;1213;-70
2023/03/03 00:58:29;;;;;;;13.30;10.60;;;;;;;;;;519087;28;1322;-70
2023/03/03 00:58:46;;;;;;;14.63;10.73;;;;;;;;;;519002;28;1071;-70
2023/03/03 00:59:02;;;;;;;14.60;10.82;;;;;;;;;;517843;28;1338;-70
2023/03/03 00:59:17;;;;;;;13.10;10.57;;;;;;;;;;517521;28;1468;-70
2023/03/03 00:59:32;;;;;;;13.27;10.53;;;;;;;;;;515516;28;1310;-69
2023/03/03 00:59:48;;;;;;;14.90;10.90;;;;;;;;;;512442;28;1209;-70
2023/03/03 01:00:04;;;;;;;15.07;10.97;;;;;;;;;;514455;28;1420;-70
2023/03/03 01:00:19;;;;;;;14.65;10.95;;;;;;;;;;513774;28;1277;-70
2023/03/03 01:00:36;;;;;;;13.98;11.00;;;;;;;;;;517223;28;1373;-70
2023/03/03 01:00:53;;;;;;;13.38;10.88;;;;;;;;;;518706;28;1221;-70
2023/03/03 01:01:08;;;;;;;12.70;10.80;;;;;;;;;;520888;28;1130;-69
2023/03/03 01:01:24;;;;;;;13.35;10.95;;;;;;;;;;520437;28;1517;-70
2023/03/03 01:01:39;;;;;;;13.27;11.10;;;;;;;;;;521792;28;1180;-70
2023/03/03 01:01:55;;;;;;;14.43;11.03;;;;;;;;;;521094;28;1359;-71
2023/03/03 01:02:10;;;;;;;15.23;10.90;;;;;;;;;;520163;28;1211;-70
2023/03/03 01:02:25;;;;;;;14.18;10.80;;;;;;;;;;519284;28;1437;-69
2023/03/03 01:02:41;;;;;;;14.07;10.60;;;;;;;;;;518274;28;1217;-70
2023/03/03 01:02:59;;;;;;;14.50;10.60;;;;;;;;;;517694;28;1442;-70
2023/03/03 01:03:18;;;;;;;14.60;11.07;;;;;;;;;;516244;28;1445;-70
2023/03/03 01:03:33;;;;;;;14.02;10.82;;;;;;;;;;512674;28;1479;-70
2023/03/03 01:03:48;;;;;;;13.23;10.63;;;;;;;;;;516300;28;1320;-70
2023/03/03 01:04:04;;;;;;;12.60;10.70;;;;;;;;;;516791;28;1242;-70
2023/03/03 01:04:19;;;;;;;11.77;10.40;;;;;;;;;;517222;28;1291;-69
2023/03/03 01:04:34;;;;;;;12.00;10.52;;;;;;;;;;515145;28;1190;-70
2023/03/03 01:04:52;;;;;;;12.53;10.70;;;;;;;;;;517799;28;1310;-70
2023/03/03 01:05:09;;;;;;;14.25;11.10;;;;;;;;;;518856;28;1488;-70
2023/03/03 01:05:25;;;;;;;14.88;11.18;;;;;;;;;;520325;28;1384;-70
2023/03/03 01:05:40;;;;;;;15.07;11.25;;;;;;;;;;519286;28;1459;-69
2023/03/03 01:05:55;;;;;;;14.73;11.20;;;;;;;;;;518149;28;1244;-70
2023/03/03 01:06:12;;;;;;;12.93;10.83;;;;;;;;;;517528;28;1235;-70
2023/03/03 01:06:27;;;;;;;13.20;11.30;;;;;;;;;;517274;28;1337;-70
2023/03/03 01:06:43;;;;;;;14.13;11.27;;;;;;;;;;515958;28;1196;-69
2023/03/03 01:06:58;;;;;;;14.73;11.10;;;;;;;;;;517187;28;1321;-69
2023/03/03 01:07:13;;;;;;;13.70;11.10;;;;;;;;;;515286;28;1353;-70
2023/03/03 01:07:28;;;;;;;14.03;11.33;;;;;;;;;;517265;28;1271;-69
2023/03/03 01:07:44;;;;;;;14.50;11.07;;;;;;;;;;518612;28;1337;-69
2023/03/03 01:08:01;;;;;;;14.17;10.57;;;;;;;;;;519279;28;1454;-69
2023/03/03 01:08:18;;;;;;;12.73;10.63;;;;;;;;;;521816;28;1484;-69
2023/03/03 01:08:33;;;;;;;12.07;10.77;;;;;;;;;;519441;28;1397;-69
2023/03/03 01:08:49;;;;;;;12.53;10.77;;;;;;;;;;518520;28;1252;-69
2023/03/03 01:09:04;;;;;;;12.60;10.77;;;;;;;;;;517909;28;1270;-69
2023/03/03 01:09:20;;;;;;;12.27;10.77;;;;;;;;;;516682;28;1221;-69
2023/03/03 01:09:36;;;;;;;13.45;10.63;;;;;;;;;;514834;28;1138;-69
2023/03/03 01:09:51;;;;;;;13.97;10.77;;;;;;;;;;516810;28;1353;-69
2023/03/03 01:10:07;;;;;;;13.37;10.90;;;;;;;;;;517921;28;1247;-69
2023/03/03 01:10:23;;;;;;;13.95;11.20;;;;;;;;;;519386;28;1218;-69
2023/03/03 01:10:42;;;;;;;13.98;11.05;;;;;;;;;;516309;28;1392;-69
2023/03/03 01:11:03;;;;;;;13.68;11.07;;;;;;;;;;520381;28;1497;-68
2023/03/03 01:11:22;;;;;;;12.98;11.10;;;;;;;;;;519196;28;1391;-68
2023/03/03 01:11:37;;;;;;;13.48;10.88;;;;;;;;;;515990;28;1294;-68
2023/03/03 01:11:53;;;;;;;13.83;10.93;;;;;;;;;;516714;28;1126;-69
2023/03/03 01:12:10;;;;;;;13.27;10.93;;;;;;;;;;517817;28;2013;-68
2023/03/03 01:12:25;;;;;;;12.93;11.07;;;;;;;;;;514543;28;1230;-68
2023/03/03 01:12:40;;;;;;;13.70;11.27;;;;;;;;;;516204;28;1199;-69
2023/03/03 01:12:57;;;;;;;13.17;10.93;;;;;;;;;;519771;28;1414;-68
2023/03/03 01:13:12;;;;;;;13.30;11.00;;;;;;;;;;520870;28;1446;-69
2023/03/03 01:13:31;;;;;;;12.73;10.85;;;;;;;;;;519895;28;1350;-69
2023/03/03 01:13:49;;;;;;;13.18;11.00;;;;;;;;;;520018;28;1267;-69
2023/03/03 01:14:04;;;;;;;13.60;11.23;;;;;;;;;;519359;28;1553;-69
2023/03/03 01:14:19;;;;;;;14.48;11.25;;;;;;;;;;519769;28;1279;-69
2023/03/03 01:14:35;;;;;;;13.60;10.77;;;;;;;;;;515887;28;1409;-69
2023/03/03 01:14:53;;;;;;;12.32;10.68;;;;;;;;;;516509;28;1480;-69
2023/03/03 01:15:11;;;;;;;13.23;11.02;;;;;;;;;;519011;28;1098;-69
2023/03/03 01:15:27;;;;;;;13.90;11.13;;;;;;;;;;520588;28;1252;-70
2023/03/03 01:15:42;;;;;;;12.32;10.60;;;;;;;;;;520751;28;1475;-69
2023/03/03 01:15:59;;;;;;;13.43;10.73;;;;;;;;;;518229;28;1208;-69
2023/03/03 01:16:15;;;;;;;15.00;11.15;;;;;;;;;;518618;28;1458;-68
2023/03/03 01:16:31;;;;;;;13.35;11.00;;;;;;;;;;516086;28;1381;-69
2023/03/03 01:16:46;;;;;;;13.70;10.90;;;;;;;;;;516691;28;1323;-69
2023/03/03 01:17:02;;;;;;;12.88;10.57;;;;;;;;;;520600;28;1349;-68
2023/03/03 01:17:18;;;;;;;11.83;10.40;;;;;;;;;;519502;28;1234;-69
2023/03/03 01:17:33;;;;;;;13.43;10.75;;;;;;;;;;517460;28;1355;-69
2023/03/03 01:17:49;;;;;;;14.63;11.37;;;;;;;;;;513637;28;1285;-69
2023/03/03 01:18:05;;;;;;;13.20;11.27;;;;;;;;;;518137;28;1314;-69
2023/03/03 01:18:21;;;;;;;13.45;10.90;;;;;;;;;;515660;28;1257;-69
2023/03/03 01:18:40;;;;;;;14.47;11.30;;;;;;;;;;517964;28;1234;-69
2023/03/03 01:18:56;;;;;;;14.20;11.52;;;;;;;;;;516423;28;1259;-69
2023/03/03 01:19:11;;;;;;;15.00;11.07;;;;;;;;;;518384;28;1275;-70
2023/03/03 01:19:26;;;;;;;14.83;10.37;;;;;;;;;;518538;28;1121;-70
2023/03/03 01:19:42;;;;;;;13.63;10.25;;;;;;;;;;519720;28;1208;-70
2023/03/03 01:19:57;;;;;;;13.50;10.63;;;;;;;;;;517587;28;1134;-70
2023/03/03 01:20:16;;;;;;;13.00;10.70;;;;;;;;;;518801;28;1318;-71
2023/03/03 01:20:31;;;;;;;12.50;10.80;;;;;;;;;;515675;28;1375;-70
2023/03/03 01:20:47;;;;;;;13.53;10.90;;;;;;;;;;517525;28;1245;-69
2023/03/03 01:21:02;;;;;;;13.60;10.80;;;;;;;;;;513676;28;1368;-70
2023/03/03 01:21:17;;;;;;;14.07;10.90;;;;;;;;;;515663;28;1595;-70
2023/03/03 01:21:33;;;;;;;14.27;10.70;;;;;;;;;;515769;28;1319;-68
2023/03/03 01:21:48;;;;;;;12.80;10.60;;;;;;;;;;517330;28;1404;-69
2023/03/03 01:22:03;;;;;;;12.52;10.52;;;;;;;;;;517427;28;1223;-69
2023/03/03 01:22:19;;;;;;;13.23;10.83;;;;;;;;;;516625;28;1490;-70
2023/03/03 01:22:34;;;;;;;13.10;11.00;;;;;;;;;;515662;28;1531;-70
2023/03/03 01:22:50;;;;;;;13.52;11.18;;;;;;;;;;515783;28;1479;-71
2023/03/03 01:23:05;;;;;;;14.03;11.37;;;;;;;;;;517629;28;1207;-70
2023/03/03 01:23:21;;;;;;;13.13;10.88;;;;;;;;;;517742;28;1233;-70
2023/03/03 01:23:37;;;;;;;13.60;10.60;;;;;;;;;;517436;28;1106;-70
2023/03/03 01:23:52;;;;;;;13.43;10.57;;;;;;;;;;518271;28;1263;-70
2023/03/03 01:24:07;;;;;;;12.53;10.60;;;;;;;;;;521399;28;1428;-69
2023/03/03 01:24:23;;;;;;;12.37;10.47;;;;;;;;;;517123;28;1449;-70
2023/03/03 01:24:38;;;;;;;12.90;10.50;;;;;;;;;;519377;28;1189;-70
2023/03/03 01:24:53;;;;;;;12.70;10.30;;;;;;;;;;516484;28;1298;-70
2023/03/03 01:25:09;;;;;;;12.00;10.27;;;;;;;;;;517278;28;1225;-70
2023/03/03 01:25:25;;;;;;;12.98;10.88;;;;;;;;;;518113;28;1074;-70
2023/03/03 01:25:41;;;;;;;12.93;10.50;;;;;;;;;;519621;28;1491;-69
2023/03/03 01:25:56;;;;;;;12.90;10.37;;;;;;;;;;523420;28;1374;-69
2023/03/03 01:26:12;;;;;;;13.15;10.55;;;;;;;;;;519109;28;1670;-69
2023/03/03 01:26:27;;;;;;;14.13;10.67;;;;;;;;;;518454;28;1198;-70
2023/03/03 01:26:42;;;;;;;13.93;10.43;;;;;;;;;;517142;28;1380;-70
2023/03/03 01:26:58;;;;;;;12.88;10.32;;;;;;;;;;517751;28;1508;-70
2023/03/03 01:27:13;;;;;;;12.00;10.30;;;;;;;;;;519325;28;1332;-70
2023/03/03 01:27:29;;;;;;;11.67;10.10;;;;;;;;;;518240;28;1521;-70
2023/03/03 01:27:45;;;;;;;12.18;10.23;;;;;;;;;;518683;28;1271;-70
2023/03/03 01:28:00;;;;;;;12.00;10.20;;;;;;;;;;521264;28;1260;-70
2023/03/03 01:28:16;;;;;;;12.90;10.23;;;;;;;;;;519542;28;1271;-70
2023/03/03 01:28:32;;;;;;;13.57;10.35;;;;;;;;;;518307;28;1384;-69
2023/03/03 01:28:47;;;;;;;13.80;10.52;;;;;;;;;;514456;28;1368;-70
2023/03/03 01:29:03;;;;;;;12.50;10.47;;;;;;;;;;516484;28;1208;-70
2023/03/03 01:29:18;;;;;;;12.83;10.53;;;;;;;;;;518041;28;1399;-70
2023/03/03 01:29:33;;;;;;;13.95;10.73;;;;;;;;;;519143;28;1295;-70
2023/03/03 01:29:49;;;;;;;13.90;10.43;;;;;;;;;;521770;28;1449;-69
2023/03/03 01:30:06;;;;;;;13.40;10.20;;;;;;;;;;519382;28;1404;-70
2023/03/03 01:30:23;;;;;;;12.15;10.20;;;;;;;;;;518633;28;1299;-69
2023/03/03 01:30:38;;;;;;;12.50;10.30;;;;;;;;;;517653;28;1266;-70
2023/03/03 01:30:53;;;;;;;13.48;10.38;;;;;;;;;;517501;28;1164;-69
2023/03/03 01:31:09;;;;;;;13.20;10.40;;;;;;;;;;515512;28;1168;-70
2023/03/03 01:31:25;;;;;;;12.93;10.13;;;;;;;;;;518408;28;1262;-70
2023/03/03 01:31:41;;;;;;;12.65;9.80;;;;;;;;;;515493;28;1414;-70
2023/03/03 01:31:56;;;;;;;12.57;10.20;;;;;;;;;;517600;28;1263;-70
2023/03/03 01:32:11;;;;;;;12.53;10.63;;;;;;;;;;514983;28;1914;-69
2023/03/03 01:32:27;;;;;;;13.27;10.50;;;;;;;;;;516470;28;1158;-70
2023/03/03 01:32:42;;;;;;;14.65;10.55;;;;;;;;;;517136;28;1119;-69
2023/03/03 01:32:57;;;;;;;13.50;10.57;;;;;;;;;;518045;28;1232;-70
2023/03/03 01:33:13;;;;;;;12.90;10.80;;;;;;;;;;520019;28;1315;-70
2023/03/03 01:33:28;;;;;;;13.20;10.80;;;;;;;;;;515763;28;1103;-70
2023/03/03 01:33:44;;;;;;;12.73;10.67;;;;;;;;;;514382;28;1245;-70
2023/03/03 01:33:59;;;;;;;12.70;10.68;;;;;;;;;;517124;28;1391;-70
2023/03/03 01:34:14;;;;;;;13.33;10.60;;;;;;;;;;518655;28;1271;-70
2023/03/03 01:34:30;;;;;;;13.73;10.93;;;;;;;;;;522616;28;1339;-70
2023/03/03 01:34:45;;;;;;;13.82;10.93;;;;;;;;;;521163;28;1078;-70
2023/03/03 01:35:00;;;;;;;13.43;10.63;;;;;;;;;;520244;28;1364;-70
2023/03/03 01:35:16;;;;;;;12.87;10.50;;;;;;;;;;519565;28;1311;-69
2023/03/03 01:35:31;;;;;;;12.57;10.70;;;;;;;;;;516458;28;1393;-70
2023/03/03 01:35:47;;;;;;;12.73;10.87;;;;;;;;;;517661;28;1279;-70
2023/03/03 01:36:03;;;;;;;13.07;10.55;;;;;;;;;;514106;28;1495;-70
2023/03/03 01:36:26;;;;;;;12.50;10.63;;;;;;;;;;515027;28;1220;-70
2023/03/03 01:36:41;;;;;;;13.07;11.30;;;;;;;;;;517598;28;1579;-69
2023/03/03 01:36:56;;;;;;;12.77;11.10;;;;;;;;;;515980;28;1495;-70
2023/03/03 01:37:12;;;;;;;12.67;10.70;;;;;;;;;;517175;28;1342;-69
2023/03/03 01:37:27;;;;;;;12.97;10.83;;;;;;;;;;518303;28;1215;-70
2023/03/03 01:37:42;;;;;;;13.07;10.90;;;;;;;;;;519773;28;1394;-70
2023/03/03 01:37:58;;;;;;;13.00;10.80;;;;;;;;;;517360;28;1437;-70
2023/03/03 01:38:14;;;;;;;11.87;10.33;;;;;;;;;;514381;28;1188;-70
2023/03/03 01:38:31;;;;;;;12.05;10.27;;;;;;;;;;515267;28;1304;-70
2023/03/03 01:38:46;;;;;;;13.52;10.70;;;;;;;;;;517126;28;1524;-69
2023/03/03 01:39:02;;;;;;;12.65;10.48;;;;;;;;;;514954;28;1323;-69
2023/03/03 01:39:17;;;;;;;13.10;10.60;;;;;;;;;;518463;28;1289;-70
2023/03/03 01:39:32;;;;;;;12.63;10.57;;;;;;;;;;519286;28;1289;-69
2023/03/03 01:39:53;;;;;;;11.70;10.50;;;;;;;;;;515407;28;1444;-70
2023/03/03 01:40:16;;;;;;;12.38;10.70;;;;;;;;;;516164;28;1424;-70
2023/03/03 01:40:32;;;;;;;13.68;11.02;;;;;;;;;;518034;28;1119;-69
2023/03/03 01:40:58;;;;;;;12.63;10.73;;;;;;;;;;516105;28;1299;-70
2023/03/03 01:41:13;;;;;;;12.65;10.63;;;;;;;;;;518537;28;1458;-70
2023/03/03 01:41:32;;;;;;;13.43;10.73;;;;;;;;;;518689;28;1214;-70
2023/03/03 01:41:47;;;;;;;13.57;10.77;;;;;;;;;;519711;28;1156;-70
2023/03/03 01:42:03;;;;;;;13.43;10.80;;;;;;;;;;517288;28;1121;-70
2023/03/03 01:42:20;;;;;;;12.32;10.43;;;;;;;;;;517685;28;1219;-70
2023/03/03 01:42:35;;;;;;;12.85;10.52;;;;;;;;;;516410;28;1473;-70
2023/03/03 01:42:51;;;;;;;12.90;10.97;;;;;;;;;;517172;28;1279;-70
2023/03/03 01:43:07;;;;;;;13.15;11.00;;;;;;;;;;516681;28;1426;-70
2023/03/03 01:43:26;;;;;;;12.90;10.82;;;;;;;;;;518454;28;1454;-70
2023/03/03 01:43:44;;;;;;;12.68;10.65;;;;;;;;;;517717;28;1527;-69
2023/03/03 01:44:00;;;;;;;13.68;10.70;;;;;;;;;;516569;28;1394;-70
2023/03/03 01:44:16;;;;;;;11.67;10.40;;;;;;;;;;520374;28;1261;-70
2023/03/03 01:44:31;;;;;;;11.65;10.30;;;;;;;;;;517563;28;1352;-69
2023/03/03 01:44:47;;;;;;;12.60;10.77;;;;;;;;;;517418;28;1150;-69
2023/03/03 01:45:18;;;;;;;12.70;10.30;;;;;;;;;;517637;28;1213;-69
2023/03/03 01:45:48;;;;;;;12.48;10.40;;;;;;;;;;519160;28;1549;-70
2023/03/03 01:46:28;;;;;;;11.93;10.10;;;;;;;;;;516850;28;1202;-70
2023/03/03 01:46:53;;;;;;;13.30;10.50;;;;;;;;;;519508;28;1188;-70
2023/03/03 01:47:16;;;;;;;12.93;10.57;;;;;;;;;;519725;28;1397;-69
2023/03/03 01:47:33;;;;;;;13.77;10.82;;;;;;;;;;518128;28;1430;-69
2023/03/03 01:48:12;;;;;;;12.38;10.43;;;;;;;;;;519801;28;1070;-69
2023/03/03 01:48:32;;;;;;;12.48;9.85;;;;;;;;;;520512;28;1232;-70
2023/03/03 01:48:47;;;;;;;14.18;10.30;;;;;;;;;;519908;28;1270;-70
2023/03/03 01:49:32;;;;;;;14.27;10.30;;;;;;;;;;522785;28;1193;-70
2023/03/03 01:49:54;;;;;;;12.43;10.38;;;;;;;;;;523239;28;1399;-69